Time,TemperatureF,DewpointF,PressureIn,WindDirection,WindDirectionDegrees,WindSpeedMPH,WindSpeedGustMPH,Humidity,HourlyPrecipIn,Conditions,Clouds,dailyrainin,SoftwareType,DateUTC
2013-07-06 08:11:00,78.5,74.0,30.05,North,360,0.0,0.0,86,0.00,,,0.00,Wunderground v.1.15,2013-07-06 12:11:00,
2013-07-06 08:12:00,78.6,74.1,30.05,North,32767,0.0,0.0,86,0.00,,,0.00,Wunderground v.1.15,2013-07-06 12:12:00,
2013-07-06 08:14:00,78.7,74.2,30.05,North,32767,0.0,0.0,86,0.00,,,0.00,Wunderground v.1.15,2013-07-06 12:14:00,
2013-07-06 08:17:00,78.9,74.4,30.05,North,360,0.0,0.0,86,0.00,,,0.00,Wunderground v.1.15,2013-07-06 12:17:00,
2013-07-06 08:19:00,79.1,74.5,30.05,North,32767,0.0,0.0,86,0.00,,,0.00,Wunderground v.1.15,2013-07-06 12:19:00,
2013-07-06 08:24:00,79.4,74.5,30.05,North,32767,0.0,0.0,85,0.00,,,0.00,Wunderground v.1.15,2013-07-06 12:24:00,
2013-07-06 08:29:00,79.7,74.4,30.05,North,360,0.0,0.0,84,0.00,,,0.00,Wunderground v.1.15,2013-07-06 12:29:00,
2013-07-06 08:36:00,80.1,75.2,30.05,North,360,0.0,0.0,85,0.00,,,0.00,Wunderground v.1.15,2013-07-06 12:36:00,
2013-07-06 08:42:00,80.5,75.2,30.04,North,32767,0.0,0.0,84,0.00,,,0.00,Wunderground v.1.15,2013-07-06 12:42:00,
2013-07-06 08:48:00,81.0,75.7,30.04,North,32767,0.0,0.0,84,0.00,,,0.00,Wunderground v.1.15,2013-07-06 12:48:00,
2013-07-06 08:54:00,81.5,76.2,30.04,North,32767,0.0,0.0,84,0.00,,,0.00,Wunderground v.1.15,2013-07-06 12:54:00,
2013-07-06 08:59:00,81.9,75.9,30.04,North,32767,0.0,0.0,82,0.00,,,0.00,Wunderground v.1.15,2013-07-06 12:59:00,
2013-07-06 09:06:00,82.1,75.7,30.04,North,32767,0.0,0.0,81,0.00,,,0.00,Wunderground v.1.15,2013-07-06 13:06:00,
2013-07-06 09:12:00,82.3,75.9,30.03,North,360,0.0,0.0,81,0.00,,,0.00,Wunderground v.1.15,2013-07-06 13:12:00,
2013-07-06 09:18:00,82.6,75.8,30.03,North,32767,0.0,0.0,80,0.00,,,0.00,Wunderground v.1.15,2013-07-06 13:18:00,
2013-07-06 09:23:00,82.7,75.5,30.03,North,32767,0.0,0.0,79,0.00,,,0.00,Wunderground v.1.15,2013-07-06 13:23:00,
2013-07-06 09:29:00,82.8,75.6,30.03,North,32767,0.0,0.0,79,0.00,,,0.00,Wunderground v.1.15,2013-07-06 13:29:00,
2013-07-06 09:34:00,82.9,75.3,30.03,North,32767,0.0,0.0,78,0.00,,,0.00,Wunderground v.1.15,2013-07-06 13:34:00,
2013-07-06 09:39:00,83.0,75.4,30.03,North,32767,0.0,0.0,78,0.00,,,0.00,Wunderground v.1.15,2013-07-06 13:39:00,
2013-07-06 09:45:00,83.2,76.4,30.03,North,32767,0.0,0.0,80,0.00,,,0.00,Wunderground v.1.15,2013-07-06 13:45:00,
2013-07-06 09:51:00,83.4,75.4,30.03,North,32767,0.0,0.0,77,0.00,,,0.00,Wunderground v.1.15,2013-07-06 13:51:00,
2013-07-06 09:56:00,83.6,75.2,30.03,North,360,0.0,0.0,76,0.00,,,0.00,Wunderground v.1.15,2013-07-06 13:56:00,
2013-07-06 10:02:00,83.8,75.8,30.03,North,32767,0.0,0.0,77,0.00,,,0.00,Wunderground v.1.15,2013-07-06 14:02:00,
2013-07-06 10:08:00,84.0,76.0,30.02,North,360,0.0,0.0,77,0.00,,,0.00,Wunderground v.1.15,2013-07-06 14:08:00,
2013-07-06 10:14:00,84.3,75.1,30.02,North,32767,0.0,0.0,74,0.00,,,0.00,Wunderground v.1.15,2013-07-06 14:14:00,
2013-07-06 10:19:00,84.5,75.7,30.02,North,32767,0.0,0.0,75,0.00,,,0.00,Wunderground v.1.15,2013-07-06 14:19:00,
2013-07-06 10:25:00,85.1,75.9,30.02,North,32767,0.0,0.0,74,0.00,,,0.00,Wunderground v.1.15,2013-07-06 14:25:00,
2013-07-06 10:30:00,85.2,75.6,30.02,North,32767,0.0,0.0,73,0.00,,,0.00,Wunderground v.1.15,2013-07-06 14:30:00,
2013-07-06 10:36:00,85.1,75.1,30.02,North,360,0.0,0.0,72,0.00,,,0.00,Wunderground v.1.15,2013-07-06 14:36:00,
2013-07-06 10:42:00,85.2,75.6,30.02,North,32767,0.0,0.0,73,0.00,,,0.00,Wunderground v.1.15,2013-07-06 14:42:00,
2013-07-06 10:48:00,85.7,75.2,30.02,North,32767,0.0,0.0,71,0.00,,,0.00,Wunderground v.1.15,2013-07-06 14:48:00,
2013-07-06 10:53:00,86.3,75.4,30.02,North,360,0.0,0.0,70,0.00,,,0.00,Wunderground v.1.15,2013-07-06 14:53:00,
2013-07-06 10:59:00,86.6,74.8,30.02,North,32767,0.0,0.0,68,0.00,,,0.00,Wunderground v.1.15,2013-07-06 14:59:00,
2013-07-06 11:06:00,86.3,74.0,30.02,North,32767,0.0,0.0,67,0.00,,,0.00,Wunderground v.1.15,2013-07-06 15:06:00,
2013-07-06 11:12:00,86.5,74.7,30.02,North,360,0.0,0.0,68,0.00,,,0.00,Wunderground v.1.15,2013-07-06 15:12:00,
2013-07-06 11:18:00,86.5,74.7,30.02,North,32767,0.0,0.0,68,0.00,,,0.00,Wunderground v.1.15,2013-07-06 15:18:00,
2013-07-06 11:23:00,86.8,75.4,30.02,North,32767,0.0,0.0,69,0.00,,,0.00,Wunderground v.1.15,2013-07-06 15:23:00,
2013-07-06 11:29:00,87.0,74.3,30.01,North,360,0.0,0.0,66,0.00,,,0.00,Wunderground v.1.15,2013-07-06 15:29:00,
2013-07-06 11:34:00,86.8,75.0,30.01,North,32767,0.0,0.0,68,0.00,,,0.00,Wunderground v.1.15,2013-07-06 15:34:00,
2013-07-06 11:41:00,87.5,74.3,30.01,North,32767,0.0,0.0,65,0.00,,,0.00,Wunderground v.1.15,2013-07-06 15:41:00,
2013-07-06 11:46:00,87.5,76.1,30.01,North,32767,0.0,0.0,69,0.00,,,0.00,Wunderground v.1.15,2013-07-06 15:46:00,
2013-07-06 11:51:00,87.4,74.2,30.01,North,360,0.0,0.0,65,0.00,,,0.00,Wunderground v.1.15,2013-07-06 15:51:00,
2013-07-06 11:56:00,87.4,74.6,30.01,North,32767,0.0,0.0,66,0.00,,,0.00,Wunderground v.1.15,2013-07-06 15:56:00,
2013-07-06 12:02:00,87.7,74.0,30.01,North,360,0.0,0.0,64,0.00,,,0.00,Wunderground v.1.15,2013-07-06 16:02:00,
2013-07-06 12:07:00,88.0,74.3,30.01,North,360,0.0,0.0,64,0.00,,,0.00,Wunderground v.1.15,2013-07-06 16:07:00,
2013-07-06 12:13:00,87.9,74.7,30.01,North,360,0.0,0.0,65,0.00,,,0.00,Wunderground v.1.15,2013-07-06 16:13:00,
2013-07-06 12:19:00,88.3,74.6,30.01,North,360,0.0,0.0,64,0.00,,,0.00,Wunderground v.1.15,2013-07-06 16:19:00,
2013-07-06 12:26:00,88.2,75.4,30.01,North,32767,0.0,0.0,66,0.00,,,0.00,Wunderground v.1.15,2013-07-06 16:26:00,
2013-07-06 12:33:00,88.9,76.1,30.01,North,32767,0.0,0.0,66,0.00,,,0.00,Wunderground v.1.15,2013-07-06 16:33:00,
2013-07-06 12:40:00,88.9,76.1,30.01,North,32767,0.0,0.0,66,0.00,,,0.00,Wunderground v.1.15,2013-07-06 16:40:00,
2013-07-06 12:49:00,89.9,77.5,30.00,North,360,0.0,0.0,67,0.00,,,0.00,Wunderground v.1.15,2013-07-06 16:49:00,
2013-07-06 12:55:00,89.5,75.2,30.00,North,32767,0.0,0.0,63,0.00,,,0.00,Wunderground v.1.15,2013-07-06 16:55:00,
2013-07-06 13:01:00,89.3,75.5,30.00,North,32767,0.0,0.0,64,0.00,,,0.00,Wunderground v.1.15,2013-07-06 17:01:00,
2013-07-06 13:06:00,89.6,76.3,30.00,North,360,0.0,0.0,65,0.00,,,0.00,Wunderground v.1.15,2013-07-06 17:06:00,
2013-07-06 13:12:00,89.0,74.8,30.00,North,360,0.0,0.0,63,0.00,,,0.00,Wunderground v.1.15,2013-07-06 17:12:00,
2013-07-06 13:18:00,88.6,76.2,30.00,North,32767,0.0,0.0,67,0.00,,,0.00,Wunderground v.1.15,2013-07-06 17:18:00,
2013-07-06 13:24:00,88.8,75.5,30.00,North,32767,0.0,0.0,65,0.00,,,0.00,Wunderground v.1.15,2013-07-06 17:24:00,
2013-07-06 13:29:00,89.0,75.2,30.00,North,32767,0.0,0.0,64,0.00,,,0.00,Wunderground v.1.15,2013-07-06 17:29:00,
2013-07-06 13:35:00,89.4,76.5,29.99,North,360,0.0,0.0,66,0.00,,,0.00,Wunderground v.1.15,2013-07-06 17:35:00,
2013-07-06 13:41:00,90.0,76.6,30.00,North,32767,0.0,0.0,65,0.00,,,0.00,Wunderground v.1.15,2013-07-06 17:41:00,
2013-07-06 13:46:00,89.4,75.6,30.00,North,360,0.0,0.0,64,0.00,,,0.00,Wunderground v.1.15,2013-07-06 17:46:00,
2013-07-06 13:53:00,88.8,76.0,29.99,North,360,0.0,0.0,66,0.00,,,0.00,Wunderground v.1.15,2013-07-06 17:53:00,
2013-07-06 13:59:00,89.1,75.8,30.00,North,32767,0.0,0.0,65,0.00,,,0.00,Wunderground v.1.15,2013-07-06 17:59:00,
2013-07-06 14:06:00,89.2,75.9,29.99,North,32767,0.0,0.0,65,0.00,,,0.00,Wunderground v.1.15,2013-07-06 18:06:00,
2013-07-06 14:11:00,89.3,75.5,29.99,North,32767,0.0,0.0,64,0.00,,,0.00,Wunderground v.1.15,2013-07-06 18:11:00,
2013-07-06 14:17:00,89.5,76.2,30.00,North,360,0.0,0.0,65,0.00,,,0.00,Wunderground v.1.15,2013-07-06 18:17:00,
2013-07-06 14:22:00,89.6,76.7,30.00,North,360,0.0,0.0,66,0.00,,,0.00,Wunderground v.1.15,2013-07-06 18:22:00,
2013-07-06 14:29:00,90.3,76.0,29.99,North,360,0.0,0.0,63,0.00,,,0.00,Wunderground v.1.15,2013-07-06 18:29:00,
2013-07-06 14:35:00,90.0,74.2,29.99,North,32767,0.0,0.0,60,0.00,,,0.00,Wunderground v.1.15,2013-07-06 18:35:00,
2013-07-06 14:46:00,90.3,75.5,29.99,North,32767,0.0,0.0,62,0.00,,,0.00,Wunderground v.1.15,2013-07-06 18:46:00,
2013-07-06 14:59:00,90.7,74.9,29.99,North,32767,0.0,0.0,60,0.00,,,0.00,Wunderground v.1.15,2013-07-06 18:59:00,
2013-07-06 15:04:00,90.3,73.5,29.99,North,32767,0.0,0.0,58,0.00,,,0.00,Wunderground v.1.15,2013-07-06 19:04:00,
2013-07-06 15:09:00,89.8,74.1,29.99,North,32767,0.0,0.0,60,0.00,,,0.00,Wunderground v.1.15,2013-07-06 19:09:00,
2013-07-06 15:14:00,89.7,74.5,29.98,North,32767,0.0,0.0,61,0.00,,,0.00,Wunderground v.1.15,2013-07-06 19:14:00,
2013-07-06 15:21:00,89.0,72.8,29.99,North,360,0.0,0.0,59,0.00,,,0.00,Wunderground v.1.15,2013-07-06 19:21:00,
2013-07-06 15:26:00,88.8,74.1,29.99,North,32767,0.0,0.0,62,0.00,,,0.00,Wunderground v.1.15,2013-07-06 19:26:00,
2013-07-06 15:31:00,89.4,75.6,29.99,North,360,0.0,0.0,64,0.00,,,0.00,Wunderground v.1.15,2013-07-06 19:31:00,
2013-07-06 15:37:00,89.2,74.0,29.99,North,32767,0.0,0.0,61,0.00,,,0.00,Wunderground v.1.15,2013-07-06 19:37:00,
2013-07-06 15:42:00,89.2,74.0,29.99,North,32767,0.0,0.0,61,0.00,,,0.00,Wunderground v.1.15,2013-07-06 19:42:00,
2013-07-06 15:48:00,89.3,74.6,29.99,North,32767,0.0,0.0,62,0.00,,,0.00,Wunderground v.1.15,2013-07-06 19:48:00,
2013-07-06 15:54:00,89.6,75.8,29.98,North,360,0.0,0.0,64,0.00,,,0.00,Wunderground v.1.15,2013-07-06 19:54:00,
2013-07-06 15:59:00,89.7,74.5,29.98,North,360,0.0,0.0,61,0.00,,,0.00,Wunderground v.1.15,2013-07-06 19:59:00,
2013-07-06 16:04:00,89.5,74.8,29.98,North,32767,0.0,0.0,62,0.00,,,0.00,Wunderground v.1.15,2013-07-06 20:04:00,
2013-07-06 16:09:00,89.5,75.7,29.98,North,32767,0.0,0.0,64,0.00,,,0.00,Wunderground v.1.15,2013-07-06 20:09:00,
2013-07-06 16:14:00,89.3,74.6,29.98,North,32767,0.0,0.0,62,0.00,,,0.00,Wunderground v.1.15,2013-07-06 20:14:00,
2013-07-06 16:21:00,88.7,75.0,29.98,North,360,0.0,0.0,64,0.00,,,0.00,Wunderground v.1.15,2013-07-06 20:21:00,
2013-07-06 16:27:00,88.2,74.0,29.97,North,32767,0.0,0.0,63,0.00,,,0.00,Wunderground v.1.15,2013-07-06 20:27:00,
2013-07-06 16:33:00,88.2,74.0,29.97,North,360,0.0,0.0,63,0.00,,,0.00,Wunderground v.1.15,2013-07-06 20:33:00,
2013-07-06 16:41:00,88.3,75.0,29.97,North,360,0.0,0.0,65,0.00,,,0.00,Wunderground v.1.15,2013-07-06 20:41:00,
2013-07-06 16:47:00,88.1,75.3,29.97,North,32767,0.0,0.0,66,0.00,,,0.00,Wunderground v.1.15,2013-07-06 20:47:00,
2013-07-06 16:53:00,88.3,75.0,29.97,North,360,0.0,0.0,65,0.00,,,0.00,Wunderground v.1.15,2013-07-06 20:53:00,
2013-07-06 16:59:00,88.7,74.5,29.97,North,360,0.0,0.0,63,0.00,,,0.00,Wunderground v.1.15,2013-07-06 20:59:00,
2013-07-06 17:04:00,89.0,76.6,29.97,North,360,0.0,0.0,67,0.00,,,0.00,Wunderground v.1.15,2013-07-06 21:04:00,
2013-07-06 17:09:00,89.3,75.0,29.96,North,32767,0.0,0.0,63,0.00,,,0.00,Wunderground v.1.15,2013-07-06 21:09:00,
2013-07-06 17:16:00,89.2,75.0,29.96,North,360,0.0,0.0,63,0.00,,,0.00,Wunderground v.1.15,2013-07-06 21:16:00,
2013-07-06 17:22:00,89.0,75.2,29.96,North,32767,0.0,0.0,64,0.00,,,0.00,Wunderground v.1.15,2013-07-06 21:22:00,
2013-07-06 17:29:00,88.5,75.2,29.96,North,32767,0.0,0.0,65,0.00,,,0.00,Wunderground v.1.15,2013-07-06 21:29:00,
2013-07-06 17:34:00,87.9,74.7,29.96,North,32767,0.0,0.0,65,0.00,,,0.00,Wunderground v.1.15,2013-07-06 21:34:00,
2013-07-06 17:41:00,88.0,76.1,29.95,North,32767,0.0,0.0,68,0.00,,,0.00,Wunderground v.1.15,2013-07-06 21:41:00,
2013-07-06 17:48:00,88.6,75.8,29.95,North,32767,0.0,0.0,66,0.00,,,0.00,Wunderground v.1.15,2013-07-06 21:48:00,
2013-07-06 17:53:00,88.8,76.0,29.95,North,360,0.0,0.0,66,0.00,,,0.00,Wunderground v.1.15,2013-07-06 21:53:00,
2013-07-06 17:58:00,88.8,75.0,29.95,North,32767,0.0,0.0,64,0.00,,,0.00,Wunderground v.1.15,2013-07-06 21:58:00,
2013-07-06 18:06:00,88.3,75.0,29.95,North,360,0.0,0.0,65,0.00,,,0.00,Wunderground v.1.15,2013-07-06 22:06:00,
2013-07-06 18:12:00,88.0,75.2,29.95,North,32767,0.0,0.0,66,0.00,,,0.00,Wunderground v.1.15,2013-07-06 22:12:00,
2013-07-06 18:19:00,87.8,75.9,29.95,North,32767,0.0,0.0,68,0.00,,,0.00,Wunderground v.1.15,2013-07-06 22:19:00,
2013-07-06 18:26:00,87.7,74.9,29.95,North,360,0.0,0.0,66,0.00,,,0.00,Wunderground v.1.15,2013-07-06 22:26:00,
2013-07-06 18:36:00,87.1,73.9,29.95,North,32767,0.0,0.0,65,0.00,,,0.00,Wunderground v.1.15,2013-07-06 22:36:00,
2013-07-06 18:41:00,86.8,74.1,29.95,North,32767,0.0,0.0,66,0.00,,,0.00,Wunderground v.1.15,2013-07-06 22:41:00,
2013-07-06 18:47:00,86.4,73.7,29.95,North,32767,0.0,0.0,66,0.00,,,0.00,Wunderground v.1.15,2013-07-06 22:47:00,
2013-07-06 18:52:00,86.2,74.8,29.95,North,360,0.0,0.0,69,0.00,,,0.00,Wunderground v.1.15,2013-07-06 22:52:00,
2013-07-06 18:59:00,85.8,74.4,29.95,North,32767,0.0,0.0,69,0.00,,,0.00,Wunderground v.1.15,2013-07-06 22:59:00,
2013-07-06 19:08:00,85.3,74.0,29.95,North,32767,0.0,0.0,69,0.00,,,0.00,Wunderground v.1.15,2013-07-06 23:08:00,
2013-07-06 19:13:00,85.1,73.8,29.95,North,32767,0.0,0.0,69,0.00,,,0.00,Wunderground v.1.15,2013-07-06 23:13:00,
2013-07-06 19:19:00,84.8,73.9,29.95,North,360,0.0,0.0,70,0.00,,,0.00,Wunderground v.1.15,2013-07-06 23:19:00,
2013-07-06 19:26:00,84.5,73.2,29.95,North,32767,0.0,0.0,69,0.00,,,0.00,Wunderground v.1.15,2013-07-06 23:26:00,
2013-07-06 19:33:00,84.1,74.1,29.95,North,360,0.0,0.0,72,0.00,,,0.00,Wunderground v.1.15,2013-07-06 23:33:00,
2013-07-06 19:39:00,83.7,74.1,29.94,North,32767,0.0,0.0,73,0.00,,,0.00,Wunderground v.1.15,2013-07-06 23:39:00,
2013-07-06 19:46:00,83.2,73.6,29.95,North,32767,0.0,0.0,73,0.00,,,0.00,Wunderground v.1.15,2013-07-06 23:46:00,
2013-07-06 19:54:00,82.7,73.2,29.95,North,32767,0.0,0.0,73,0.00,,,0.00,Wunderground v.1.15,2013-07-06 23:54:00,
2013-07-06 20:03:00,82.1,73.0,29.96,North,32767,0.0,0.0,74,0.00,,,0.00,Wunderground v.1.15,2013-07-07 00:03:00,
2013-07-06 20:09:00,81.9,73.6,29.95,North,32767,0.0,0.0,76,0.00,,,0.00,Wunderground v.1.15,2013-07-07 00:09:00,
2013-07-06 20:16:00,81.6,73.7,29.96,North,32767,0.0,0.0,77,0.00,,,0.00,Wunderground v.1.15,2013-07-07 00:16:00,
2013-07-06 20:22:00,81.3,73.8,29.96,North,32767,0.0,0.0,78,0.00,,,0.00,Wunderground v.1.15,2013-07-07 00:22:00,
2013-07-06 20:28:00,80.9,73.4,29.96,North,360,0.0,0.0,78,0.00,,,0.00,Wunderground v.1.15,2013-07-07 00:28:00,
2013-07-06 20:34:00,80.6,73.1,29.96,North,32767,0.0,0.0,78,0.00,,,0.00,Wunderground v.1.15,2013-07-07 00:34:00,
2013-07-06 20:39:00,80.2,73.1,29.97,North,32767,0.0,0.0,79,0.00,,,0.00,Wunderground v.1.15,2013-07-07 00:39:00,
2013-07-06 20:44:00,79.8,73.1,29.97,North,32767,0.0,0.0,80,0.00,,,0.00,Wunderground v.1.15,2013-07-07 00:44:00,
2013-07-06 20:52:00,79.4,73.4,29.97,North,360,0.0,0.0,82,0.00,,,0.00,Wunderground v.1.15,2013-07-07 00:52:00,
2013-07-06 20:57:00,79.0,73.0,29.97,North,32767,0.0,0.0,82,0.00,,,0.00,Wunderground v.1.15,2013-07-07 00:57:00,
2013-07-06 21:04:00,78.7,73.1,29.97,North,32767,0.0,0.0,83,0.00,,,0.00,Wunderground v.1.15,2013-07-07 01:04:00,
2013-07-06 21:11:00,78.4,72.8,29.97,North,32767,0.0,0.0,83,0.00,,,0.00,Wunderground v.1.15,2013-07-07 01:11:00,
2013-07-06 21:17:00,78.1,72.9,29.97,North,360,0.0,0.0,84,0.00,,,0.00,Wunderground v.1.15,2013-07-07 01:17:00,
2013-07-06 21:22:00,77.9,72.7,29.98,North,32767,0.0,0.0,84,0.00,,,0.00,Wunderground v.1.15,2013-07-07 01:22:00,
2013-07-06 21:28:00,77.6,72.4,29.98,North,32767,0.0,0.0,84,0.00,,,0.00,Wunderground v.1.15,2013-07-07 01:28:00,
2013-07-06 21:33:00,77.4,72.5,29.99,North,32767,0.0,0.0,85,0.00,,,0.00,Wunderground v.1.15,2013-07-07 01:33:00,
2013-07-06 21:39:00,77.1,72.2,29.98,North,32767,0.0,0.0,85,0.00,,,0.00,Wunderground v.1.15,2013-07-07 01:39:00,
2013-07-06 21:44:00,76.9,72.0,29.98,North,32767,0.0,0.0,85,0.00,,,0.00,Wunderground v.1.15,2013-07-07 01:44:00,
2013-07-06 21:51:00,76.6,72.1,29.98,North,360,0.0,0.0,86,0.00,,,0.00,Wunderground v.1.15,2013-07-07 01:51:00,
2013-07-06 21:56:00,76.3,71.8,29.99,North,360,0.0,0.0,86,0.00,,,0.00,Wunderground v.1.15,2013-07-07 01:56:00,
2013-07-06 22:02:00,76.0,71.8,29.99,North,32767,0.0,0.0,87,0.00,,,0.00,Wunderground v.1.15,2013-07-07 02:02:00,
2013-07-06 22:07:00,75.7,71.6,29.99,North,360,0.0,0.0,87,0.00,,,0.00,Wunderground v.1.15,2013-07-07 02:07:00,
2013-07-06 22:16:00,75.3,71.2,29.99,North,32767,0.0,0.0,87,0.00,,,0.00,Wunderground v.1.15,2013-07-07 02:16:00,
2013-07-06 22:22:00,75.1,71.0,29.99,North,32767,0.0,0.0,87,0.00,,,0.00,Wunderground v.1.15,2013-07-07 02:22:00,
2013-07-06 22:29:00,74.7,70.9,29.99,North,360,0.0,0.0,88,0.00,,,0.00,Wunderground v.1.15,2013-07-07 02:29:00,
2013-07-06 22:36:00,74.4,70.3,29.99,North,32767,0.0,0.0,87,0.00,,,0.00,Wunderground v.1.15,2013-07-07 02:36:00,
2013-07-06 22:43:00,74.1,70.0,29.99,North,32767,0.0,0.0,87,0.00,,,0.00,Wunderground v.1.15,2013-07-07 02:43:00,
2013-07-06 22:51:00,73.9,69.8,29.99,North,360,0.0,0.0,87,0.00,,,0.00,Wunderground v.1.15,2013-07-07 02:51:00,
2013-07-06 22:59:00,73.8,69.7,29.99,North,32767,0.0,0.0,87,0.00,,,0.00,Wunderground v.1.15,2013-07-07 02:59:00,
2013-07-06 23:04:00,73.8,69.7,29.99,North,360,0.0,0.0,87,0.00,,,0.00,Wunderground v.1.15,2013-07-07 03:04:00,
2013-07-06 23:11:00,73.7,69.6,29.99,North,360,0.0,0.0,87,0.00,,,0.00,Wunderground v.1.15,2013-07-07 03:11:00,
2013-07-06 23:19:00,73.6,69.5,29.99,North,360,0.0,0.0,87,0.00,,,0.00,Wunderground v.1.15,2013-07-07 03:19:00,
2013-07-06 23:26:00,73.5,69.4,29.99,North,360,0.0,0.0,87,0.00,,,0.00,Wunderground v.1.15,2013-07-07 03:26:00,
2013-07-06 23:31:00,73.4,69.3,29.99,North,360,0.0,0.0,87,0.00,,,0.00,Wunderground v.1.15,2013-07-07 03:31:00,
2013-07-06 23:37:00,73.3,69.2,29.99,North,32767,0.0,0.0,87,0.00,,,0.00,Wunderground v.1.15,2013-07-07 03:37:00,
2013-07-06 23:42:00,73.1,69.0,29.99,North,360,0.0,0.0,87,0.00,,,0.00,Wunderground v.1.15,2013-07-07 03:42:00,
2013-07-06 23:48:00,73.0,68.9,29.99,North,32767,0.0,0.0,87,0.00,,,0.00,Wunderground v.1.15,2013-07-07 03:48:00,
2013-07-06 23:56:00,72.8,68.7,29.99,North,360,0.0,0.0,87,0.00,,,0.00,Wunderground v.1.15,2013-07-07 03:56:00,